sensor_id;sensor_type;location;lat;lon;timestamp;temperature;humidity
21834;DHT22;11079;51.092;3.458;2023-05-01T00:00:56;15.80;99.90
21834;DHT22;11079;51.092;3.458;2023-05-01T00:03:23;15.80;99.90
21834;DHT22;11079;51.092;3.458;2023-05-01T00:05:48;15.80;99.90
21834;DHT22;11079;51.092;3.458;2023-05-01T00:08:14;15.80;99.90
21834;DHT22;11079;51.092;3.458;2023-05-01T00:10:40;16.00;99.90
21834;DHT22;11079;51.092;3.458;2023-05-01T00:13:06;16.00;99.90
21834;DHT22;11079;51.092;3.458;2023-05-01T00:15:32;16.00;99.90
21834;DHT22;11079;51.092;3.458;2023-05-01T00:17:58;16.00;99.90
21834;DHT22;11079;51.092;3.458;2023-05-01T00:20:37;15.90;99.90
21834;DHT22;11079;51.092;3.458;2023-05-01T00:23:04;16.00;99.90
21834;DHT22;11079;51.092;3.458;2023-05-01T00:25:34;15.90;99.90
21834;DHT22;11079;51.092;3.458;2023-05-01T00:28:01;15.90;99.90
21834;DHT22;11079;51.092;3.458;2023-05-01T00:30:29;15.90;99.90
21834;DHT22;11079;51.092;3.458;2023-05-01T00:32:54;16.00;99.90
21834;DHT22;11079;51.092;3.458;2023-05-01T00:35:20;16.00;99.90
21834;DHT22;11079;51.092;3.458;2023-05-01T00:37:46;16.00;99.90
21834;DHT22;11079;51.092;3.458;2023-05-01T00:40:16;15.80;99.90
21834;DHT22;11079;51.092;3.458;2023-05-01T00:42:42;15.80;99.90
21834;DHT22;11079;51.092;3.458;2023-05-01T00:45:08;15.70;99.90
21834;DHT22;11079;51.092;3.458;2023-05-01T00:47:40;15.70;99.90
21834;DHT22;11079;51.092;3.458;2023-05-01T00:50:08;15.70;99.90
21834;DHT22;11079;51.092;3.458;2023-05-01T00:52:36;15.60;99.90
21834;DHT22;11079;51.092;3.458;2023-05-01T00:55:04;15.70;99.90
21834;DHT22;11079;51.092;3.458;2023-05-01T00:57:32;15.70;99.90
21834;DHT22;11079;51.092;3.458;2023-05-01T01:00:00;15.60;99.90
21834;DHT22;11079;51.092;3.458;2023-05-01T01:02:26;15.50;99.90
21834;DHT22;11079;51.092;3.458;2023-05-01T01:04:53;15.30;99.90
21834;DHT22;11079;51.092;3.458;2023-05-01T01:07:40;15.20;99.90
21834;DHT22;11079;51.092;3.458;2023-05-01T01:13:11;15.40;99.90
21834;DHT22;11079;51.092;3.458;2023-05-01T01:16:11;15.40;99.90
21834;DHT22;11079;51.092;3.458;2023-05-01T01:21:28;15.50;99.90
21834;DHT22;11079;51.092;3.458;2023-05-01T01:30:01;15.50;99.90
21834;DHT22;11079;51.092;3.458;2023-05-01T01:35:54;15.50;99.90
21834;DHT22;11079;51.092;3.458;2023-05-01T01:38:51;15.40;99.90
21834;DHT22;11079;51.092;3.458;2023-05-01T01:41:23;15.30;99.90
21834;DHT22;11079;51.092;3.458;2023-05-01T01:46:58;15.20;99.90
21834;DHT22;11079;51.092;3.458;2023-05-01T01:49:28;15.10;99.90
21834;DHT22;11079;51.092;3.458;2023-05-01T01:52:00;15.10;99.90
21834;DHT22;11079;51.092;3.458;2023-05-01T01:54:34;15.20;99.90
21834;DHT22;11079;51.092;3.458;2023-05-01T01:57:01;15.30;99.90
21834;DHT22;11079;51.092;3.458;2023-05-01T01:59:30;15.30;99.90
21834;DHT22;11079;51.092;3.458;2023-05-01T02:02:00;15.40;99.90
21834;DHT22;11079;51.092;3.458;2023-05-01T02:04:27;15.30;99.90
21834;DHT22;11079;51.092;3.458;2023-05-01T02:06:57;15.20;99.90
21834;DHT22;11079;51.092;3.458;2023-05-01T02:09:25;15.20;99.90
21834;DHT22;11079;51.092;3.458;2023-05-01T02:11:53;15.10;99.90
21834;DHT22;11079;51.092;3.458;2023-05-01T02:14:20;15.20;99.90
21834;DHT22;11079;51.092;3.458;2023-05-01T02:16:47;15.20;99.90
21834;DHT22;11079;51.092;3.458;2023-05-01T02:19:15;15.30;99.90
21834;DHT22;11079;51.092;3.458;2023-05-01T02:21:42;15.30;99.90
21834;DHT22;11079;51.092;3.458;2023-05-01T02:24:10;15.40;99.90
21834;DHT22;11079;51.092;3.458;2023-05-01T02:26:43;15.40;99.90
21834;DHT22;11079;51.092;3.458;2023-05-01T02:29:12;15.40;99.90
21834;DHT22;11079;51.092;3.458;2023-05-01T02:31:38;15.40;99.90
21834;DHT22;11079;51.092;3.458;2023-05-01T02:34:04;15.40;99.90
21834;DHT22;11079;51.092;3.458;2023-05-01T02:36:35;15.40;99.90
21834;DHT22;11079;51.092;3.458;2023-05-01T02:39:04;15.40;99.90
21834;DHT22;11079;51.092;3.458;2023-05-01T02:41:49;15.30;99.90
21834;DHT22;11079;51.092;3.458;2023-05-01T02:44:17;15.20;99.90
21834;DHT22;11079;51.092;3.458;2023-05-01T02:46:46;15.10;99.90
21834;DHT22;11079;51.092;3.458;2023-05-01T02:49:16;15.00;99.90
21834;DHT22;11079;51.092;3.458;2023-05-01T02:51:45;15.00;99.90
21834;DHT22;11079;51.092;3.458;2023-05-01T02:54:14;15.10;99.90
21834;DHT22;11079;51.092;3.458;2023-05-01T02:56:45;15.20;99.90
21834;DHT22;11079;51.092;3.458;2023-05-01T02:59:13;15.20;99.90
21834;DHT22;11079;51.092;3.458;2023-05-01T03:01:44;15.30;99.90
21834;DHT22;11079;51.092;3.458;2023-05-01T03:04:12;15.00;99.90
21834;DHT22;11079;51.092;3.458;2023-05-01T03:06:37;15.00;99.90
21834;DHT22;11079;51.092;3.458;2023-05-01T03:09:06;15.10;99.90
21834;DHT22;11079;51.092;3.458;2023-05-01T03:11:36;15.30;99.90
21834;DHT22;11079;51.092;3.458;2023-05-01T03:14:02;15.30;99.90
21834;DHT22;11079;51.092;3.458;2023-05-01T03:16:27;15.20;99.90
21834;DHT22;11079;51.092;3.458;2023-05-01T03:18:53;15.10;99.90
21834;DHT22;11079;51.092;3.458;2023-05-01T03:21:20;15.10;99.90
21834;DHT22;11079;51.092;3.458;2023-05-01T03:23:46;15.00;99.90
21834;DHT22;11079;51.092;3.458;2023-05-01T03:26:12;15.10;99.90
21834;DHT22;11079;51.092;3.458;2023-05-01T03:28:39;15.00;99.90
21834;DHT22;11079;51.092;3.458;2023-05-01T03:31:07;15.00;99.90
21834;DHT22;11079;51.092;3.458;2023-05-01T03:33:33;14.90;99.90
21834;DHT22;11079;51.092;3.458;2023-05-01T03:36:04;14.90;99.90
21834;DHT22;11079;51.092;3.458;2023-05-01T03:38:31;14.80;99.90
21834;DHT22;11079;51.092;3.458;2023-05-01T03:40:57;14.70;99.90
21834;DHT22;11079;51.092;3.458;2023-05-01T03:43:23;14.90;99.90
21834;DHT22;11079;51.092;3.458;2023-05-01T03:45:49;14.80;99.90
21834;DHT22;11079;51.092;3.458;2023-05-01T03:48:16;14.50;99.90
21834;DHT22;11079;51.092;3.458;2023-05-01T03:50:42;14.50;99.90
21834;DHT22;11079;51.092;3.458;2023-05-01T03:53:08;14.50;99.90
21834;DHT22;11079;51.092;3.458;2023-05-01T03:55:33;14.40;99.90
21834;DHT22;11079;51.092;3.458;2023-05-01T03:57:59;14.30;99.90
21834;DHT22;11079;51.092;3.458;2023-05-01T04:00:25;14.20;99.90
21834;DHT22;11079;51.092;3.458;2023-05-01T04:02:51;14.10;99.90
21834;DHT22;11079;51.092;3.458;2023-05-01T04:05:17;14.20;99.90
21834;DHT22;11079;51.092;3.458;2023-05-01T04:07:43;14.30;99.90
21834;DHT22;11079;51.092;3.458;2023-05-01T04:10:09;14.20;99.90
21834;DHT22;11079;51.092;3.458;2023-05-01T04:12:36;14.20;99.90
21834;DHT22;11079;51.092;3.458;2023-05-01T04:15:02;14.20;99.90
21834;DHT22;11079;51.092;3.458;2023-05-01T04:17:28;14.30;99.90
21834;DHT22;11079;51.092;3.458;2023-05-01T04:19:54;14.20;99.90
21834;DHT22;11079;51.092;3.458;2023-05-01T04:22:21;14.20;99.90
21834;DHT22;11079;51.092;3.458;2023-05-01T04:24:48;14.20;99.90
21834;DHT22;11079;51.092;3.458;2023-05-01T04:27:14;14.10;99.90
21834;DHT22;11079;51.092;3.458;2023-05-01T04:29:39;14.00;99.90
21834;DHT22;11079;51.092;3.458;2023-05-01T04:32:06;14.00;99.90
21834;DHT22;11079;51.092;3.458;2023-05-01T04:34:32;14.00;99.90
21834;DHT22;11079;51.092;3.458;2023-05-01T04:36:58;14.10;99.90
21834;DHT22;11079;51.092;3.458;2023-05-01T04:39:24;14.00;99.90
21834;DHT22;11079;51.092;3.458;2023-05-01T04:41:50;13.80;99.90
21834;DHT22;11079;51.092;3.458;2023-05-01T04:44:15;13.90;99.90
21834;DHT22;11079;51.092;3.458;2023-05-01T04:46:41;13.90;99.90
21834;DHT22;11079;51.092;3.458;2023-05-01T04:49:07;13.70;99.90
21834;DHT22;11079;51.092;3.458;2023-05-01T04:51:33;13.70;99.90
21834;DHT22;11079;51.092;3.458;2023-05-01T04:53:59;13.80;99.90
21834;DHT22;11079;51.092;3.458;2023-05-01T04:56:25;13.80;99.90
21834;DHT22;11079;51.092;3.458;2023-05-01T04:58:51;13.90;99.90
21834;DHT22;11079;51.092;3.458;2023-05-01T05:01:17;13.90;99.90
21834;DHT22;11079;51.092;3.458;2023-05-01T05:03:42;13.90;99.90
21834;DHT22;11079;51.092;3.458;2023-05-01T05:06:08;14.00;99.90
21834;DHT22;11079;51.092;3.458;2023-05-01T05:08:34;13.90;99.90
21834;DHT22;11079;51.092;3.458;2023-05-01T05:11:01;13.80;99.90
21834;DHT22;11079;51.092;3.458;2023-05-01T05:13:28;13.60;99.90
21834;DHT22;11079;51.092;3.458;2023-05-01T05:15:56;13.70;99.90
21834;DHT22;11079;51.092;3.458;2023-05-01T05:18:24;13.60;99.90
21834;DHT22;11079;51.092;3.458;2023-05-01T05:20:53;13.60;99.90
21834;DHT22;11079;51.092;3.458;2023-05-01T05:23:22;13.60;99.90
21834;DHT22;11079;51.092;3.458;2023-05-01T05:25:48;13.60;99.90
21834;DHT22;11079;51.092;3.458;2023-05-01T05:28:14;13.70;99.90
21834;DHT22;11079;51.092;3.458;2023-05-01T05:30:42;13.60;99.90
21834;DHT22;11079;51.092;3.458;2023-05-01T05:33:08;13.70;99.90
21834;DHT22;11079;51.092;3.458;2023-05-01T05:35:37;13.70;99.90
21834;DHT22;11079;51.092;3.458;2023-05-01T05:38:06;13.60;99.90
21834;DHT22;11079;51.092;3.458;2023-05-01T05:40:31;13.70;99.90
21834;DHT22;11079;51.092;3.458;2023-05-01T05:42:57;13.80;99.90
21834;DHT22;11079;51.092;3.458;2023-05-01T05:45:23;13.80;99.90
21834;DHT22;11079;51.092;3.458;2023-05-01T05:47:49;13.80;99.90
21834;DHT22;11079;51.092;3.458;2023-05-01T05:50:14;13.80;99.90
21834;DHT22;11079;51.092;3.458;2023-05-01T05:52:40;13.70;99.90
21834;DHT22;11079;51.092;3.458;2023-05-01T05:55:07;13.80;99.90
21834;DHT22;11079;51.092;3.458;2023-05-01T05:57:33;13.50;99.90
21834;DHT22;11079;51.092;3.458;2023-05-01T06:00:02;13.40;99.90
21834;DHT22;11079;51.092;3.458;2023-05-01T06:02:30;13.30;99.90
21834;DHT22;11079;51.092;3.458;2023-05-01T06:04:58;13.40;99.90
21834;DHT22;11079;51.092;3.458;2023-05-01T06:07:23;13.40;99.90
21834;DHT22;11079;51.092;3.458;2023-05-01T06:09:55;13.40;99.90
21834;DHT22;11079;51.092;3.458;2023-05-01T06:12:48;13.30;99.90
21834;DHT22;11079;51.092;3.458;2023-05-01T06:15:19;13.20;99.90
21834;DHT22;11079;51.092;3.458;2023-05-01T06:17:46;13.20;99.90
21834;DHT22;11079;51.092;3.458;2023-05-01T06:20:11;13.50;99.90
21834;DHT22;11079;51.092;3.458;2023-05-01T06:22:43;13.70;99.90
21834;DHT22;11079;51.092;3.458;2023-05-01T06:25:09;13.80;99.90
21834;DHT22;11079;51.092;3.458;2023-05-01T06:27:35;14.10;99.90
21834;DHT22;11079;51.092;3.458;2023-05-01T06:30:01;14.40;99.90
21834;DHT22;11079;51.092;3.458;2023-05-01T06:32:27;14.60;99.90
21834;DHT22;11079;51.092;3.458;2023-05-01T06:34:52;14.80;99.90
21834;DHT22;11079;51.092;3.458;2023-05-01T06:37:18;15.10;99.90
21834;DHT22;11079;51.092;3.458;2023-05-01T06:39:44;15.20;99.90
21834;DHT22;11079;51.092;3.458;2023-05-01T06:42:09;15.00;99.90
21834;DHT22;11079;51.092;3.458;2023-05-01T06:44:40;15.40;99.90
21834;DHT22;11079;51.092;3.458;2023-05-01T06:47:05;15.70;99.90
21834;DHT22;11079;51.092;3.458;2023-05-01T06:49:31;15.80;99.90
21834;DHT22;11079;51.092;3.458;2023-05-01T06:51:58;16.60;99.90
21834;DHT22;11079;51.092;3.458;2023-05-01T06:54:25;17.60;99.90
21834;DHT22;11079;51.092;3.458;2023-05-01T06:56:52;18.10;99.90
21834;DHT22;11079;51.092;3.458;2023-05-01T06:59:18;18.40;99.90
21834;DHT22;11079;51.092;3.458;2023-05-01T07:01:45;18.70;99.90
21834;DHT22;11079;51.092;3.458;2023-05-01T07:04:11;18.50;99.90
21834;DHT22;11079;51.092;3.458;2023-05-01T07:06:37;18.10;99.90
21834;DHT22;11079;51.092;3.458;2023-05-01T07:09:04;17.60;99.90
21834;DHT22;11079;51.092;3.458;2023-05-01T07:11:33;17.40;99.90
21834;DHT22;11079;51.092;3.458;2023-05-01T07:13:59;17.50;99.90
21834;DHT22;11079;51.092;3.458;2023-05-01T07:16:33;17.70;99.90
21834;DHT22;11079;51.092;3.458;2023-05-01T07:18:59;17.30;99.90
21834;DHT22;11079;51.092;3.458;2023-05-01T07:21:25;17.10;99.90
21834;DHT22;11079;51.092;3.458;2023-05-01T07:23:51;16.90;99.90
21834;DHT22;11079;51.092;3.458;2023-05-01T07:26:17;16.80;99.90
21834;DHT22;11079;51.092;3.458;2023-05-01T07:28:44;16.50;99.90
21834;DHT22;11079;51.092;3.458;2023-05-01T07:31:09;16.30;99.90
21834;DHT22;11079;51.092;3.458;2023-05-01T07:33:36;16.10;99.90
21834;DHT22;11079;51.092;3.458;2023-05-01T07:36:02;16.10;99.90
21834;DHT22;11079;51.092;3.458;2023-05-01T07:38:34;16.10;99.90
21834;DHT22;11079;51.092;3.458;2023-05-01T07:41:01;16.10;99.90
21834;DHT22;11079;51.092;3.458;2023-05-01T07:43:26;16.10;99.90
21834;DHT22;11079;51.092;3.458;2023-05-01T07:45:59;16.20;99.90
21834;DHT22;11079;51.092;3.458;2023-05-01T07:48:27;16.40;99.90
21834;DHT22;11079;51.092;3.458;2023-05-01T07:50:54;16.30;99.90
21834;DHT22;11079;51.092;3.458;2023-05-01T07:53:21;16.30;99.90
21834;DHT22;11079;51.092;3.458;2023-05-01T07:55:49;16.30;99.90
21834;DHT22;11079;51.092;3.458;2023-05-01T07:58:17;16.20;99.90
21834;DHT22;11079;51.092;3.458;2023-05-01T08:00:43;16.40;99.90
21834;DHT22;11079;51.092;3.458;2023-05-01T08:03:10;16.70;99.90
21834;DHT22;11079;51.092;3.458;2023-05-01T08:05:41;16.90;99.90
21834;DHT22;11079;51.092;3.458;2023-05-01T08:08:07;17.10;99.90
21834;DHT22;11079;51.092;3.458;2023-05-01T08:10:34;17.20;99.90
21834;DHT22;11079;51.092;3.458;2023-05-01T08:13:00;17.40;99.90
21834;DHT22;11079;51.092;3.458;2023-05-01T08:15:25;17.70;99.90
21834;DHT22;11079;51.092;3.458;2023-05-01T08:17:51;17.60;99.90
21834;DHT22;11079;51.092;3.458;2023-05-01T08:20:17;17.70;99.90
21834;DHT22;11079;51.092;3.458;2023-05-01T08:22:42;18.00;99.90
21834;DHT22;11079;51.092;3.458;2023-05-01T08:25:10;18.10;99.90
21834;DHT22;11079;51.092;3.458;2023-05-01T08:27:35;18.00;99.90
21834;DHT22;11079;51.092;3.458;2023-05-01T08:30:01;18.00;99.90
21834;DHT22;11079;51.092;3.458;2023-05-01T08:32:27;17.70;99.90
21834;DHT22;11079;51.092;3.458;2023-05-01T08:34:55;17.70;99.90
21834;DHT22;11079;51.092;3.458;2023-05-01T08:37:24;17.70;99.90
21834;DHT22;11079;51.092;3.458;2023-05-01T08:39:50;17.90;99.90
21834;DHT22;11079;51.092;3.458;2023-05-01T08:42:15;18.40;99.90
21834;DHT22;11079;51.092;3.458;2023-05-01T08:44:41;18.60;99.90
21834;DHT22;11079;51.092;3.458;2023-05-01T08:47:14;18.90;99.90
21834;DHT22;11079;51.092;3.458;2023-05-01T08:49:41;18.80;99.90
21834;DHT22;11079;51.092;3.458;2023-05-01T08:52:09;19.20;99.90
21834;DHT22;11079;51.092;3.458;2023-05-01T08:54:37;19.20;99.90
21834;DHT22;11079;51.092;3.458;2023-05-01T08:57:05;19.20;99.90
21834;DHT22;11079;51.092;3.458;2023-05-01T08:59:36;19.20;99.90
21834;DHT22;11079;51.092;3.458;2023-05-01T09:02:04;19.10;99.90
21834;DHT22;11079;51.092;3.458;2023-05-01T09:04:40;19.10;99.90
21834;DHT22;11079;51.092;3.458;2023-05-01T09:07:06;19.30;99.90
21834;DHT22;11079;51.092;3.458;2023-05-01T09:09:32;19.10;99.90
21834;DHT22;11079;51.092;3.458;2023-05-01T09:12:19;18.90;99.90
21834;DHT22;11079;51.092;3.458;2023-05-01T09:14:48;18.80;99.90
21834;DHT22;11079;51.092;3.458;2023-05-01T09:17:14;19.00;99.90
21834;DHT22;11079;51.092;3.458;2023-05-01T09:19:40;19.10;99.90
21834;DHT22;11079;51.092;3.458;2023-05-01T09:22:06;19.00;99.90
21834;DHT22;11079;51.092;3.458;2023-05-01T09:24:32;19.30;99.90
21834;DHT22;11079;51.092;3.458;2023-05-01T09:26:58;19.30;99.90
21834;DHT22;11079;51.092;3.458;2023-05-01T09:29:46;19.40;99.90
21834;DHT22;11079;51.092;3.458;2023-05-01T09:32:18;19.70;99.90
21834;DHT22;11079;51.092;3.458;2023-05-01T09:34:49;20.10;99.90
21834;DHT22;11079;51.092;3.458;2023-05-01T09:40:09;21.80;99.90
21834;DHT22;11079;51.092;3.458;2023-05-01T09:42:37;22.40;99.90
21834;DHT22;11079;51.092;3.458;2023-05-01T09:45:06;22.80;99.90
21834;DHT22;11079;51.092;3.458;2023-05-01T09:47:36;22.60;99.90
21834;DHT22;11079;51.092;3.458;2023-05-01T09:50:02;22.90;99.90
21834;DHT22;11079;51.092;3.458;2023-05-01T09:52:29;23.80;99.90
21834;DHT22;11079;51.092;3.458;2023-05-01T09:57:38;26.50;99.90
21834;DHT22;11079;51.092;3.458;2023-05-01T10:00:05;26.70;99.90
21834;DHT22;11079;51.092;3.458;2023-05-01T10:02:33;27.30;99.90
21834;DHT22;11079;51.092;3.458;2023-05-01T10:04:59;26.30;99.90
21834;DHT22;11079;51.092;3.458;2023-05-01T10:07:25;26.40;99.90
21834;DHT22;11079;51.092;3.458;2023-05-01T10:09:51;26.30;99.90
21834;DHT22;11079;51.092;3.458;2023-05-01T10:12:25;26.90;99.90
21834;DHT22;11079;51.092;3.458;2023-05-01T10:14:55;28.00;99.90
21834;DHT22;11079;51.092;3.458;2023-05-01T10:17:22;28.20;99.90
21834;DHT22;11079;51.092;3.458;2023-05-01T10:19:48;28.70;99.90
21834;DHT22;11079;51.092;3.458;2023-05-01T10:22:18;28.70;99.90
21834;DHT22;11079;51.092;3.458;2023-05-01T10:24:43;28.50;97.10
21834;DHT22;11079;51.092;3.458;2023-05-01T10:27:12;27.90;99.40
21834;DHT22;11079;51.092;3.458;2023-05-01T10:29:40;27.50;99.60
21834;DHT22;11079;51.092;3.458;2023-05-01T10:32:07;26.60;99.90
21834;DHT22;11079;51.092;3.458;2023-05-01T10:34:37;27.10;99.90
21834;DHT22;11079;51.092;3.458;2023-05-01T10:37:21;27.60;99.90
21834;DHT22;11079;51.092;3.458;2023-05-01T10:39:47;27.50;98.50
21834;DHT22;11079;51.092;3.458;2023-05-01T10:42:13;27.20;99.40
21834;DHT22;11079;51.092;3.458;2023-05-01T10:44:40;27.90;99.90
21834;DHT22;11079;51.092;3.458;2023-05-01T10:50:13;28.20;97.30
21834;DHT22;11079;51.092;3.458;2023-05-01T10:55:40;28.20;98.40
21834;DHT22;11079;51.092;3.458;2023-05-01T10:58:13;27.90;97.50
21834;DHT22;11079;51.092;3.458;2023-05-01T11:01:36;27.20;97.20
21834;DHT22;11079;51.092;3.458;2023-05-01T11:09:42;27.30;99.00
21834;DHT22;11079;51.092;3.458;2023-05-01T11:15:09;25.70;99.90
21834;DHT22;11079;51.092;3.458;2023-05-01T11:20:11;25.30;99.90
21834;DHT22;11079;51.092;3.458;2023-05-01T11:22:44;26.10;99.90
21834;DHT22;11079;51.092;3.458;2023-05-01T11:25:28;26.00;99.90
21834;DHT22;11079;51.092;3.458;2023-05-01T11:28:02;25.60;99.90
21834;DHT22;11079;51.092;3.458;2023-05-01T11:30:38;25.30;99.90
21834;DHT22;11079;51.092;3.458;2023-05-01T11:33:04;24.60;99.90
21834;DHT22;11079;51.092;3.458;2023-05-01T11:35:31;24.00;99.90
21834;DHT22;11079;51.092;3.458;2023-05-01T11:37:57;23.80;99.90
21834;DHT22;11079;51.092;3.458;2023-05-01T11:40:25;23.40;99.90
21834;DHT22;11079;51.092;3.458;2023-05-01T11:43:00;23.40;99.90
21834;DHT22;11079;51.092;3.458;2023-05-01T11:45:26;24.30;99.90
21834;DHT22;11079;51.092;3.458;2023-05-01T11:47:52;24.70;99.90
21834;DHT22;11079;51.092;3.458;2023-05-01T11:50:18;25.90;99.90
21834;DHT22;11079;51.092;3.458;2023-05-01T11:52:50;27.00;99.90
21834;DHT22;11079;51.092;3.458;2023-05-01T11:55:19;27.20;99.90
21834;DHT22;11079;51.092;3.458;2023-05-01T11:57:50;27.40;99.70
21834;DHT22;11079;51.092;3.458;2023-05-01T12:00:29;27.50;98.30
21834;DHT22;11079;51.092;3.458;2023-05-01T12:02:55;27.30;99.10
21834;DHT22;11079;51.092;3.458;2023-05-01T12:05:22;26.60;98.70
21834;DHT22;11079;51.092;3.458;2023-05-01T12:07:49;25.90;99.90
21834;DHT22;11079;51.092;3.458;2023-05-01T12:10:15;25.20;99.90
21834;DHT22;11079;51.092;3.458;2023-05-01T12:12:43;24.40;99.90
21834;DHT22;11079;51.092;3.458;2023-05-01T12:15:09;23.60;99.90
21834;DHT22;11079;51.092;3.458;2023-05-01T12:17:36;22.70;99.90
21834;DHT22;11079;51.092;3.458;2023-05-01T12:20:05;22.10;99.90
21834;DHT22;11079;51.092;3.458;2023-05-01T12:22:31;21.70;99.90
21834;DHT22;11079;51.092;3.458;2023-05-01T12:24:57;21.60;99.90
21834;DHT22;11079;51.092;3.458;2023-05-01T12:27:25;21.40;99.90
21834;DHT22;11079;51.092;3.458;2023-05-01T12:29:50;21.30;99.90
21834;DHT22;11079;51.092;3.458;2023-05-01T12:32:16;21.10;99.90
21834;DHT22;11079;51.092;3.458;2023-05-01T12:34:43;21.00;99.90
21834;DHT22;11079;51.092;3.458;2023-05-01T12:37:21;21.00;99.90
21834;DHT22;11079;51.092;3.458;2023-05-01T12:39:54;21.80;99.90
21834;DHT22;11079;51.092;3.458;2023-05-01T12:42:19;21.90;99.90
21834;DHT22;11079;51.092;3.458;2023-05-01T12:44:45;22.40;99.90
21834;DHT22;11079;51.092;3.458;2023-05-01T12:47:12;23.20;99.90
21834;DHT22;11079;51.092;3.458;2023-05-01T12:49:38;24.00;99.90
21834;DHT22;11079;51.092;3.458;2023-05-01T12:52:05;24.20;99.90
21834;DHT22;11079;51.092;3.458;2023-05-01T12:54:36;23.70;99.90
21834;DHT22;11079;51.092;3.458;2023-05-01T12:57:07;23.20;99.90
21834;DHT22;11079;51.092;3.458;2023-05-01T12:59:40;22.70;99.90
21834;DHT22;11079;51.092;3.458;2023-05-01T13:02:08;22.60;99.90
21834;DHT22;11079;51.092;3.458;2023-05-01T13:04:41;23.50;99.90
21834;DHT22;11079;51.092;3.458;2023-05-01T13:07:11;23.60;99.90
21834;DHT22;11079;51.092;3.458;2023-05-01T13:09:38;23.20;99.90
21834;DHT22;11079;51.092;3.458;2023-05-01T13:12:05;23.50;99.90
21834;DHT22;11079;51.092;3.458;2023-05-01T13:14:38;24.10;99.90
21834;DHT22;11079;51.092;3.458;2023-05-01T13:17:08;24.40;99.90
21834;DHT22;11079;51.092;3.458;2023-05-01T13:19:35;25.20;99.90
21834;DHT22;11079;51.092;3.458;2023-05-01T13:22:04;24.80;99.90
21834;DHT22;11079;51.092;3.458;2023-05-01T13:24:38;25.40;99.90
21834;DHT22;11079;51.092;3.458;2023-05-01T13:27:10;25.20;99.90
21834;DHT22;11079;51.092;3.458;2023-05-01T13:29:40;25.50;99.90
21834;DHT22;11079;51.092;3.458;2023-05-01T13:32:10;25.40;99.90
21834;DHT22;11079;51.092;3.458;2023-05-01T13:34:41;25.20;99.90
21834;DHT22;11079;51.092;3.458;2023-05-01T13:37:09;25.40;99.90
21834;DHT22;11079;51.092;3.458;2023-05-01T13:39:43;25.20;99.90
21834;DHT22;11079;51.092;3.458;2023-05-01T13:42:11;25.40;99.90
21834;DHT22;11079;51.092;3.458;2023-05-01T13:44:47;24.80;99.90
21834;DHT22;11079;51.092;3.458;2023-05-01T13:47:17;24.40;99.90
21834;DHT22;11079;51.092;3.458;2023-05-01T13:49:43;24.50;99.90
21834;DHT22;11079;51.092;3.458;2023-05-01T13:52:17;24.80;99.90
21834;DHT22;11079;51.092;3.458;2023-05-01T13:54:44;24.30;99.90
21834;DHT22;11079;51.092;3.458;2023-05-01T13:57:10;23.60;99.90
21834;DHT22;11079;51.092;3.458;2023-05-01T13:59:39;23.30;99.90
21834;DHT22;11079;51.092;3.458;2023-05-01T14:04:47;22.30;99.90
21834;DHT22;11079;51.092;3.458;2023-05-01T14:07:18;22.70;99.90
21834;DHT22;11079;51.092;3.458;2023-05-01T14:09:52;22.70;99.90
21834;DHT22;11079;51.092;3.458;2023-05-01T14:12:29;23.20;99.90
21834;DHT22;11079;51.092;3.458;2023-05-01T14:14:55;23.70;99.90
21834;DHT22;11079;51.092;3.458;2023-05-01T14:17:32;23.20;99.90
21834;DHT22;11079;51.092;3.458;2023-05-01T14:20:01;22.60;99.90
21834;DHT22;11079;51.092;3.458;2023-05-01T14:27:57;20.40;99.90
21834;DHT22;11079;51.092;3.458;2023-05-01T14:30:31;20.10;99.90
21834;DHT22;11079;51.092;3.458;2023-05-01T14:33:12;20.00;99.90
21834;DHT22;11079;51.092;3.458;2023-05-01T14:36:01;20.00;99.90
21834;DHT22;11079;51.092;3.458;2023-05-01T14:38:27;20.00;99.90
21834;DHT22;11079;51.092;3.458;2023-05-01T14:41:02;19.90;99.90
21834;DHT22;11079;51.092;3.458;2023-05-01T14:43:36;19.90;99.90
21834;DHT22;11079;51.092;3.458;2023-05-01T14:46:11;19.90;99.90
21834;DHT22;11079;51.092;3.458;2023-05-01T14:48:40;19.60;99.90
21834;DHT22;11079;51.092;3.458;2023-05-01T14:51:11;19.30;99.90
21834;DHT22;11079;51.092;3.458;2023-05-01T14:53:40;19.20;99.90
21834;DHT22;11079;51.092;3.458;2023-05-01T14:56:08;18.90;99.90
21834;DHT22;11079;51.092;3.458;2023-05-01T14:58:36;18.40;99.90
21834;DHT22;11079;51.092;3.458;2023-05-01T15:01:08;18.20;99.90
21834;DHT22;11079;51.092;3.458;2023-05-01T15:03:40;18.20;99.90
21834;DHT22;11079;51.092;3.458;2023-05-01T15:06:09;18.10;99.90
21834;DHT22;11079;51.092;3.458;2023-05-01T15:08:44;17.90;99.90
21834;DHT22;11079;51.092;3.458;2023-05-01T15:11:16;17.90;99.90
21834;DHT22;11079;51.092;3.458;2023-05-01T15:13:53;18.00;99.90
21834;DHT22;11079;51.092;3.458;2023-05-01T15:16:22;18.10;99.90
21834;DHT22;11079;51.092;3.458;2023-05-01T15:18:59;18.20;99.90
21834;DHT22;11079;51.092;3.458;2023-05-01T15:21:33;18.20;99.90
21834;DHT22;11079;51.092;3.458;2023-05-01T15:24:33;18.00;99.90
21834;DHT22;11079;51.092;3.458;2023-05-01T15:27:10;17.90;99.90
21834;DHT22;11079;51.092;3.458;2023-05-01T15:29:40;17.90;99.90
21834;DHT22;11079;51.092;3.458;2023-05-01T15:32:16;18.00;99.90
21834;DHT22;11079;51.092;3.458;2023-05-01T15:34:44;17.90;99.90
21834;DHT22;11079;51.092;3.458;2023-05-01T15:37:10;17.90;99.90
21834;DHT22;11079;51.092;3.458;2023-05-01T15:39:43;18.00;99.90
21834;DHT22;11079;51.092;3.458;2023-05-01T15:42:14;18.00;99.90
21834;DHT22;11079;51.092;3.458;2023-05-01T15:45:07;18.20;99.90
21834;DHT22;11079;51.092;3.458;2023-05-01T15:48:22;18.10;99.90
21834;DHT22;11079;51.092;3.458;2023-05-01T15:51:09;17.90;99.90
21834;DHT22;11079;51.092;3.458;2023-05-01T15:54:08;18.10;99.90
21834;DHT22;11079;51.092;3.458;2023-05-01T15:57:18;18.20;99.90
21834;DHT22;11079;51.092;3.458;2023-05-01T16:00:36;18.00;99.90
21834;DHT22;11079;51.092;3.458;2023-05-01T16:03:58;17.80;99.90
21834;DHT22;11079;51.092;3.458;2023-05-01T16:06:44;18.00;99.90
21834;DHT22;11079;51.092;3.458;2023-05-01T16:10:04;18.10;99.90
21834;DHT22;11079;51.092;3.458;2023-05-01T16:12:31;18.00;99.90
21834;DHT22;11079;51.092;3.458;2023-05-01T16:18:04;17.80;99.90
21834;DHT22;11079;51.092;3.458;2023-05-01T16:20:45;17.80;99.90
21834;DHT22;11079;51.092;3.458;2023-05-01T16:23:14;17.80;99.90
21834;DHT22;11079;51.092;3.458;2023-05-01T16:25:45;17.70;99.90
21834;DHT22;11079;51.092;3.458;2023-05-01T16:28:51;18.00;99.90
21834;DHT22;11079;51.092;3.458;2023-05-01T16:31:23;17.90;99.90
21834;DHT22;11079;51.092;3.458;2023-05-01T16:34:42;17.50;99.90
21834;DHT22;11079;51.092;3.458;2023-05-01T16:38:10;17.30;99.90
21834;DHT22;11079;51.092;3.458;2023-05-01T16:40:52;17.30;99.90